Time;durP1;ratioP1;P1;durP2;ratioP2;P2;SDS_P1;SDS_P2;PMS_P1;PMS_P2;Temp;Humidity;BMP_temperature;BMP_pressure;BME280_temperature;BME280_humidity;BME280_pressure;Samples;Min_cycle;Max_cycle;Signal;HPM_P1;HPM_P2
2022/01/21 00:00:56;;;;;;;91.45;63.15;;;2.00;80.40;;;;;;5037308;28;20055;-70
2022/01/21 00:03:22;;;;;;;93.55;55.30;;;2.00;80.50;;;;;;5036958;28;20483;-70
2022/01/21 00:05:47;;;;;;;78.40;55.60;;;2.00;80.50;;;;;;5036920;28;20026;-70
2022/01/21 00:08:13;;;;;;;81.35;59.65;;;2.10;80.60;;;;;;5037213;28;20479;-71
2022/01/21 00:10:39;;;;;;;66.93;47.80;;;2.10;80.60;;;;;;5036865;28;20052;-71
2022/01/21 00:13:14;;;;;;;81.22;53.45;;;2.00;80.50;;;;;;5037077;28;20025;-70
2022/01/21 00:15:40;;;;;;;81.32;55.45;;;2.00;80.50;;;;;;5035332;28;20083;-69
2022/01/21 00:18:07;;;;;;;76.32;51.38;;;2.10;80.60;;;;;;5037166;28;20025;-70
2022/01/21 00:31:30;;;;;;;81.18;47.28;;;2.10;80.60;;;;;;5036768;28;20036;-69
2022/01/21 00:33:56;;;;;;;70.78;48.28;;;2.10;80.60;;;;;;5035060;28;20021;-69
2022/01/21 00:36:21;;;;;;;48.10;41.83;;;2.10;80.60;;;;;;5036329;28;20022;-69
2022/01/21 00:38:47;;;;;;;53.17;40.40;;;2.10;80.70;;;;;;5035579;28;20022;-69
2022/01/21 00:41:18;;;;;;;54.92;39.03;;;2.10;80.70;;;;;;5035973;28;20028;-69
2022/01/21 00:43:44;;;;;;;36.80;33.45;;;2.10;80.80;;;;;;5036553;28;20025;-69
2022/01/21 00:46:13;;;;;;;42.30;38.15;;;2.20;80.70;;;;;;5036158;28;20094;-69
2022/01/21 00:48:39;;;;;;;39.90;34.15;;;2.10;80.60;;;;;;5036153;28;20424;-70
2022/01/21 00:51:06;;;;;;;41.25;36.88;;;2.10;80.80;;;;;;5036054;28;20053;-69
2022/01/21 00:53:32;;;;;;;43.65;35.10;;;2.00;80.80;;;;;;5036024;28;20025;-70
2022/01/21 00:55:57;;;;;;;41.67;37.22;;;2.00;81.00;;;;;;5035953;28;20048;-69
2022/01/21 00:58:23;;;;;;;43.08;38.42;;;2.00;81.20;;;;;;5035919;28;20440;-70
2022/01/21 01:00:49;;;;;;;56.67;46.50;;;2.00;81.30;;;;;;5035385;28;20029;-70
2022/01/21 01:03:15;;;;;;;49.00;43.67;;;2.10;81.40;;;;;;5035777;28;20102;-70
2022/01/21 01:05:41;;;;;;;46.28;41.30;;;2.00;81.50;;;;;;5035818;28;20025;-70
2022/01/21 01:08:07;;;;;;;46.70;38.10;;;2.00;81.60;;;;;;5035514;28;20028;-69
2022/01/21 01:21:23;;;;;;;47.10;38.10;;;2.10;82.00;;;;;;5035543;28;20112;-69
2022/01/21 01:27:35;;;;;;;49.47;40.55;;;2.10;82.00;;;;;;5035469;28;20100;-69
2022/01/21 01:29:31;;;;;;;42.78;37.63;;;2.10;82.10;;;;;;5035693;28;20534;-70
2022/01/21 01:31:57;;;;;;;49.78;40.25;;;2.10;82.10;;;;;;5035260;28;20025;-69
2022/01/21 01:34:23;;;;;;;45.75;39.20;;;2.10;82.10;;;;;;5034570;28;20028;-70
2022/01/21 01:36:48;;;;;;;47.08;39.05;;;2.10;82.10;;;;;;5034538;28;20026;-70
2022/01/21 01:41:52;;;;;;;43.70;39.13;;;2.10;82.20;;;;;;5035070;28;20031;-70
2022/01/21 01:49:47;;;;;;;49.60;43.88;;;2.20;82.20;;;;;;5035297;28;20079;-69
2022/01/21 01:52:18;;;;;;;42.83;38.75;;;2.20;82.10;;;;;;5034728;28;20025;-69
2022/01/21 01:54:47;;;;;;;38.63;34.88;;;2.20;82.30;;;;;;5034683;28;20105;-71
2022/01/21 01:57:13;;;;;;;36.15;32.00;;;2.20;82.20;;;;;;5033593;28;20111;-69
2022/01/21 01:59:38;;;;;;;35.25;30.83;;;2.20;82.00;;;;;;5035006;28;20060;-71
2022/01/21 02:02:09;;;;;;;32.65;29.48;;;2.20;82.00;;;;;;5033853;28;20061;-69
2022/01/21 02:04:35;;;;;;;30.27;27.38;;;2.20;82.00;;;;;;5034692;28;20086;-70
2022/01/21 02:07:01;;;;;;;33.13;29.95;;;2.30;82.00;;;;;;5034375;28;20021;-71
2022/01/21 02:09:27;;;;;;;27.88;25.42;;;2.20;81.80;;;;;;5034369;28;20100;-68
2022/01/21 02:11:53;;;;;;;26.77;24.65;;;2.30;81.90;;;;;;5034375;28;20021;-69
2022/01/21 02:14:27;;;;;;;27.58;25.10;;;2.30;81.50;;;;;;5034845;28;20070;-69
2022/01/21 02:22:10;;;;;;;24.00;22.25;;;2.20;80.40;;;;;;5034425;28;20032;-71
2022/01/21 02:24:55;;;;;;;24.80;23.02;;;2.20;80.30;;;;;;5034408;28;20104;-68
2022/01/21 02:27:21;;;;;;;20.08;18.35;;;2.20;80.10;;;;;;5034320;28;20025;-68
2022/01/21 02:29:54;;;;;;;18.55;17.15;;;2.10;79.70;;;;;;5033474;28;20025;-68
2022/01/21 02:32:21;;;;;;;20.05;18.83;;;2.10;79.50;;;;;;5034849;28;20113;-69
2022/01/21 02:34:48;;;;;;;19.55;18.45;;;2.00;78.60;;;;;;5034457;28;20417;-69
2022/01/21 02:37:19;;;;;;;21.70;20.48;;;1.90;78.20;;;;;;5034177;28;20402;-69
2022/01/21 02:39:46;;;;;;;18.20;16.77;;;1.90;78.20;;;;;;5034673;28;20082;-69
2022/01/21 02:42:12;;;;;;;17.48;16.48;;;1.90;77.90;;;;;;5034563;28;20087;-69
2022/01/21 02:44:39;;;;;;;20.80;18.98;;;1.90;77.70;;;;;;5034000;28;20068;-70
2022/01/21 02:47:06;;;;;;;18.60;17.60;;;1.90;77.30;;;;;;5034464;28;20025;-68
2022/01/21 02:49:31;;;;;;;19.42;18.25;;;1.80;76.90;;;;;;5034278;28;20014;-69
2022/01/21 02:52:01;;;;;;;18.17;16.67;;;1.80;76.80;;;;;;5033985;28;20367;-68
2022/01/21 02:54:30;;;;;;;19.55;18.45;;;1.70;76.50;;;;;;5032720;28;20359;-68
2022/01/21 02:57:02;;;;;;;20.33;18.85;;;1.70;76.30;;;;;;5033887;28;20071;-69
2022/01/21 02:59:28;;;;;;;20.23;19.15;;;1.70;76.30;;;;;;5034514;28;20450;-69
2022/01/21 03:01:53;;;;;;;20.27;18.92;;;1.70;76.10;;;;;;5033564;28;20124;-68
2022/01/21 03:04:32;;;;;;;18.58;17.48;;;1.60;75.70;;;;;;5033211;28;20167;-68
2022/01/21 03:06:58;;;;;;;16.75;15.85;;;1.60;75.60;;;;;;5034429;28;20021;-70
2022/01/21 03:09:23;;;;;;;19.85;18.80;;;1.50;75.50;;;;;;5033860;28;20044;-68
2022/01/21 03:11:49;;;;;;;18.75;17.85;;;1.50;75.60;;;;;;5033799;28;20467;-69
2022/01/21 03:14:15;;;;;;;20.23;19.00;;;1.40;75.10;;;;;;5034031;28;20017;-69
2022/01/21 03:16:40;;;;;;;18.92;17.83;;;1.30;75.00;;;;;;5033494;28;20064;-69
2022/01/21 03:19:06;;;;;;;21.35;19.95;;;1.40;75.40;;;;;;5033757;28;20359;-68
2022/01/21 03:21:32;;;;;;;20.42;18.63;;;1.40;75.30;;;;;;5033593;28;20025;-68
2022/01/21 03:23:57;;;;;;;19.17;17.90;;;1.40;75.10;;;;;;5035564;28;20079;-68
2022/01/21 03:26:25;;;;;;;20.70;19.48;;;1.40;75.10;;;;;;5037652;28;20029;-68
2022/01/21 03:28:54;;;;;;;20.67;19.38;;;1.30;75.00;;;;;;5036893;28;20021;-70
2022/01/21 03:31:21;;;;;;;18.05;17.05;;;1.30;74.90;;;;;;5037877;28;20021;-69
2022/01/21 03:33:46;;;;;;;19.48;17.85;;;1.40;74.90;;;;;;5036240;28;20104;-69
2022/01/21 03:36:13;;;;;;;21.67;20.33;;;1.40;75.10;;;;;;5037749;28;20396;-69
2022/01/21 03:38:38;;;;;;;21.55;20.25;;;1.30;74.90;;;;;;5037510;28;20029;-69
2022/01/21 03:41:05;;;;;;;19.27;17.33;;;1.30;74.50;;;;;;5037333;28;20036;-70
2022/01/21 03:43:31;;;;;;;19.17;17.80;;;1.30;74.60;;;;;;5037297;28;20514;-70
2022/01/21 03:45:57;;;;;;;20.30;19.10;;;1.30;74.40;;;;;;5037623;28;20053;-68
2022/01/21 03:48:25;;;;;;;18.48;17.25;;;1.30;74.50;;;;;;5037584;28;20471;-69
2022/01/21 03:50:51;;;;;;;20.15;18.77;;;1.30;74.10;;;;;;5035961;28;20448;-70
2022/01/21 03:53:17;;;;;;;19.48;18.38;;;1.30;74.30;;;;;;5037128;28;20026;-71
2022/01/21 03:55:44;;;;;;;19.73;18.50;;;1.30;74.30;;;;;;5036372;28;20397;-69
2022/01/21 03:58:11;;;;;;;19.00;17.70;;;1.30;74.20;;;;;;5037043;28;20018;-68
2022/01/21 04:00:51;;;;;;;18.13;17.17;;;1.20;74.00;;;;;;5037053;28;20028;-69
2022/01/21 04:03:18;;;;;;;20.25;19.05;;;1.10;74.00;;;;;;5035151;28;20129;-67
2022/01/21 04:05:44;;;;;;;18.52;17.42;;;1.10;73.80;;;;;;5036899;28;20022;-67
2022/01/21 04:08:11;;;;;;;19.77;18.17;;;1.10;73.80;;;;;;5037194;28;20025;-68
2022/01/21 04:10:41;;;;;;;20.05;18.80;;;1.00;73.70;;;;;;5036867;28;20032;-67
2022/01/21 04:13:13;;;;;;;18.48;17.35;;;0.90;73.70;;;;;;5037024;28;20033;-67
2022/01/21 04:15:39;;;;;;;20.70;19.58;;;0.90;73.70;;;;;;5036371;28;20371;-68
2022/01/21 04:18:05;;;;;;;29.67;21.75;;;0.90;73.50;;;;;;5036734;28;20109;-69
2022/01/21 04:20:30;;;;;;;22.23;20.20;;;0.80;73.50;;;;;;5036750;28;20352;-69
2022/01/21 04:22:56;;;;;;;21.83;20.25;;;0.80;73.70;;;;;;5036426;28;20467;-70
2022/01/21 04:25:22;;;;;;;19.65;18.50;;;0.80;73.60;;;;;;5036488;28;20403;-67
2022/01/21 04:27:47;;;;;;;22.00;20.10;;;0.80;73.40;;;;;;5036499;28;20021;-68
2022/01/21 04:30:13;;;;;;;22.30;20.77;;;0.80;73.30;;;;;;5036469;28;20032;-68
2022/01/21 04:32:39;;;;;;;21.73;20.25;;;0.80;73.30;;;;;;5036939;28;20037;-68
2022/01/21 04:35:05;;;;;;;18.90;17.80;;;0.70;73.80;;;;;;5035888;28;20030;-68
2022/01/21 04:37:31;;;;;;;20.05;18.95;;;0.70;73.30;;;;;;5036362;28;20018;-67
2022/01/21 04:40:33;;;;;;;23.05;21.67;;;0.70;73.20;;;;;;5036300;28;20096;-67
2022/01/21 04:48:17;;;;;;;22.90;21.65;;;0.70;73.10;;;;;;5035976;28;20032;-69
2022/01/21 04:51:10;;;;;;;21.40;19.92;;;0.60;72.90;;;;;;5035996;28;20021;-68
2022/01/21 04:53:36;;;;;;;23.40;22.10;;;0.60;72.80;;;;;;5035131;28;20025;-67
2022/01/21 04:56:03;;;;;;;23.90;22.50;;;0.60;72.70;;;;;;5036186;28;20028;-72
2022/01/21 04:58:29;;;;;;;23.13;21.42;;;0.50;72.60;;;;;;5035625;28;20409;-71
2022/01/21 05:00:55;;;;;;;24.38;22.58;;;0.40;72.50;;;;;;5036301;28;20036;-69
2022/01/21 05:03:21;;;;;;;25.15;23.70;;;0.40;72.50;;;;;;5033803;28;20057;-68
2022/01/21 05:05:47;;;;;;;22.13;20.95;;;0.30;72.40;;;;;;5035361;28;20026;-68
2022/01/21 05:08:24;;;;;;;21.08;19.92;;;0.30;72.30;;;;;;5035908;28;20508;-70
2022/01/21 05:10:50;;;;;;;20.23;18.92;;;0.30;72.20;;;;;;5035825;28;20459;-69
2022/01/21 05:13:18;;;;;;;20.00;19.08;;;0.20;72.00;;;;;;5035507;28;20112;-61
2022/01/21 05:16:06;;;;;;;22.17;21.00;;;0.20;72.60;;;;;;5034075;28;20106;-62
2022/01/21 05:18:32;;;;;;;20.88;19.92;;;0.30;72.00;;;;;;5038129;28;20071;-71
2022/01/21 05:20:59;;;;;;;22.10;20.65;;;0.20;71.90;;;;;;5035788;28;20017;-68
2022/01/21 05:23:26;;;;;;;19.65;18.45;;;0.20;71.90;;;;;;5035849;28;20045;-69
2022/01/21 05:25:52;;;;;;;25.25;23.30;;;0.20;71.70;;;;;;5035461;28;20022;-62
2022/01/21 05:28:18;;;;;;;25.05;23.30;;;0.20;71.60;;;;;;5035535;28;20024;-62
2022/01/21 05:30:43;;;;;;;23.38;21.92;;;0.20;71.50;;;;;;5035571;28;20086;-62
2022/01/21 05:33:09;;;;;;;27.55;25.85;;;0.10;71.60;;;;;;5034274;28;20025;-62
2022/01/21 05:35:35;;;;;;;27.83;25.83;;;0.10;71.60;;;;;;5032865;28;20053;-63
2022/01/21 05:38:00;;;;;;;27.27;25.38;;;0.10;71.30;;;;;;5034771;28;20022;-62
2022/01/21 05:40:26;;;;;;;23.50;22.02;;;0.10;71.50;;;;;;5034719;28;20467;-62
2022/01/21 05:42:52;;;;;;;23.73;22.30;;;0.10;71.40;;;;;;5054010;28;20102;-61
2022/01/21 05:48:02;;;;;;;23.83;22.30;;;0.10;71.30;;;;;;5054553;28;20364;-65
2022/01/21 05:50:27;;;;;;;21.65;20.55;;;0.00;71.20;;;;;;5054326;28;20025;-61
2022/01/21 11:03:26;;;;;;;26.55;24.88;;;0.80;65.30;;;;;;5071128;28;20441;-61
2022/01/21 11:06:17;;;;;;;22.15;20.58;;;0.70;67.10;;;;;;5069633;28;20502;-62
2022/01/21 11:08:42;;;;;;;23.38;21.98;;;0.80;68.10;;;;;;5071125;28;20132;-60
2022/01/21 11:11:09;;;;;;;22.05;20.20;;;1.00;68.60;;;;;;5070813;28;20505;-63
2022/01/21 11:13:39;;;;;;;21.17;19.88;;;1.10;68.80;;;;;;5070807;28;20032;-61
2022/01/21 11:16:16;;;;;;;24.33;22.92;;;1.20;68.60;;;;;;5069514;28;20028;-60
2022/01/21 11:18:50;;;;;;;23.20;21.45;;;1.30;68.20;;;;;;5070431;28;20048;-61
2022/01/21 11:21:16;;;;;;;23.30;21.58;;;1.50;68.30;;;;;;5069321;28;20029;-62
2022/01/21 11:23:42;;;;;;;19.35;18.02;;;1.60;68.20;;;;;;5069411;28;20079;-61
2022/01/21 11:26:12;;;;;;;20.90;19.50;;;1.70;67.80;;;;;;5070618;28;20035;-61
2022/01/21 11:28:50;;;;;;;20.08;18.65;;;1.70;67.60;;;;;;5071009;28;20031;-61
2022/01/21 11:31:21;;;;;;;21.08;19.65;;;1.70;67.30;;;;;;5069096;28;20029;-61
2022/01/21 11:33:47;;;;;;;24.00;22.27;;;1.80;67.20;;;;;;5070741;28;20031;-61
2022/01/21 11:36:13;;;;;;;28.98;26.27;;;1.80;67.30;;;;;;5070848;28;20383;-61
2022/01/21 11:38:41;;;;;;;23.90;21.98;;;1.90;67.50;;;;;;5070313;28;20025;-61
2022/01/21 11:41:08;;;;;;;24.15;22.27;;;1.90;67.30;;;;;;5070526;28;20387;-60
2022/01/21 11:43:36;;;;;;;17.83;16.67;;;1.90;66.90;;;;;;5070127;28;20463;-60
2022/01/21 11:48:53;;;;;;;18.52;17.17;;;1.90;66.60;;;;;;5070486;28;20044;-60
2022/01/21 11:51:36;;;;;;;22.65;20.88;;;1.90;66.80;;;;;;5070000;28;20044;-61
2022/01/21 11:54:05;;;;;;;19.23;18.23;;;1.90;66.60;;;;;;5069515;28;20478;-60
2022/01/21 11:56:55;;;;;;;21.50;20.15;;;2.00;66.50;;;;;;5069151;28;20032;-61
2022/01/21 11:59:34;;;;;;;24.05;22.58;;;2.00;65.90;;;;;;5068862;28;20356;-61
2022/01/21 12:02:15;;;;;;;21.13;19.50;;;2.00;66.00;;;;;;5068158;28;20056;-62
2022/01/21 12:04:51;;;;;;;20.05;18.63;;;2.00;65.50;;;;;;5069814;28;20020;-61
2022/01/21 12:07:36;;;;;;;19.70;18.23;;;2.00;65.40;;;;;;5069455;28;20063;-61
2022/01/21 12:10:18;;;;;;;19.27;17.98;;;1.90;65.60;;;;;;5061623;28;20027;-61
2022/01/21 12:15:28;;;;;;;22.10;20.75;;;2.00;65.40;;;;;;5045280;28;20029;-60
2022/01/21 12:21:05;;;;;;;18.27;17.33;;;2.10;65.40;;;;;;5042580;28;20040;-60
2022/01/21 12:23:45;;;;;;;19.50;18.48;;;2.10;64.40;;;;;;5035448;28;20379;-60
2022/01/21 12:26:11;;;;;;;18.67;17.58;;;2.00;64.30;;;;;;5036267;28;20060;-59
2022/01/21 12:29:02;;;;;;;20.27;19.27;;;2.10;64.20;;;;;;5036208;28;20037;-59
2022/01/21 12:31:47;;;;;;;21.50;19.15;;;2.10;64.10;;;;;;5042202;28;20037;-61
2022/01/21 12:34:15;;;;;;;21.30;20.13;;;2.10;64.10;;;;;;5035235;28;20030;-60
2022/01/21 12:36:52;;;;;;;17.98;17.00;;;2.10;64.10;;;;;;5034951;28;20033;-61
2022/01/21 12:39:43;;;;;;;19.83;18.45;;;2.10;63.90;;;;;;5035908;28;20033;-61
2022/01/21 12:42:20;;;;;;;20.27;18.98;;;2.10;63.60;;;;;;5033860;28;20036;-60
2022/01/21 12:44:54;;;;;;;25.38;23.38;;;2.10;63.60;;;;;;5035402;28;20125;-61
2022/01/21 12:47:41;;;;;;;22.42;20.88;;;2.10;63.90;;;;;;5034493;28;20033;-61
2022/01/21 12:50:16;;;;;;;19.15;18.00;;;2.10;63.50;;;;;;5052811;28;20025;-61
2022/01/21 12:53:13;;;;;;;20.45;19.17;;;2.00;63.20;;;;;;5055488;28;20060;-60
2022/01/21 12:56:02;;;;;;;20.98;19.67;;;2.00;63.50;;;;;;5054229;28;20052;-61
2022/01/21 12:58:46;;;;;;;19.75;18.17;;;2.00;63.00;;;;;;5054305;28;20020;-60
2022/01/21 13:01:13;;;;;;;20.95;19.80;;;1.90;63.30;;;;;;5047913;28;20034;-59
2022/01/21 13:03:55;;;;;;;20.05;18.42;;;1.90;63.20;;;;;;5043510;28;20526;-61
2022/01/21 13:06:35;;;;;;;20.27;18.98;;;1.90;63.00;;;;;;5046581;28;20021;-62
2022/01/21 13:09:08;;;;;;;18.50;17.08;;;1.80;63.30;;;;;;5054007;28;20040;-61
2022/01/21 13:11:36;;;;;;;18.80;17.40;;;1.80;63.30;;;;;;5053994;28;20048;-61
2022/01/21 13:17:15;;;;;;;21.98;19.98;;;1.80;63.10;;;;;;5044052;28;20056;-61
2022/01/21 13:19:54;;;;;;;22.30;20.27;;;1.80;63.40;;;;;;5043984;28;20045;-60
2022/01/21 13:22:24;;;;;;;23.15;21.65;;;1.80;63.60;;;;;;5044228;28;20450;-60
2022/01/21 13:25:08;;;;;;;23.67;22.15;;;1.80;63.60;;;;;;5051279;28;20033;-60
2022/01/21 13:27:42;;;;;;;24.30;22.42;;;1.80;63.80;;;;;;5053436;28;20025;-62
2022/01/21 13:30:10;;;;;;;25.23;23.30;;;1.80;63.70;;;;;;5053301;28;20039;-61
2022/01/21 13:32:36;;;;;;;22.05;20.45;;;1.80;63.70;;;;;;5054451;28;20063;-61
2022/01/21 13:35:10;;;;;;;21.52;20.08;;;1.80;63.80;;;;;;5054682;28;20060;-61
2022/01/21 13:37:37;;;;;;;20.45;19.08;;;1.70;63.50;;;;;;5054351;28;20029;-61
2022/01/21 13:40:05;;;;;;;20.98;19.70;;;1.70;63.60;;;;;;5054695;28;20037;-61
2022/01/21 13:42:32;;;;;;;19.30;18.10;;;1.70;63.70;;;;;;5054133;28;20025;-61
2022/01/21 13:45:04;;;;;;;20.20;18.92;;;1.70;63.50;;;;;;5054553;28;20117;-60
2022/01/21 13:47:40;;;;;;;18.83;17.63;;;1.70;63.80;;;;;;5054486;28;20112;-60
2022/01/21 13:50:22;;;;;;;19.73;18.52;;;1.70;63.80;;;;;;5053407;28;20021;-62
2022/01/21 13:53:03;;;;;;;19.05;17.83;;;1.60;63.80;;;;;;5053342;28;20048;-61
2022/01/21 13:55:47;;;;;;;18.58;17.48;;;1.60;63.80;;;;;;5054359;28;20021;-62
2022/01/21 13:58:15;;;;;;;23.60;22.17;;;1.50;63.60;;;;;;5053394;28;20029;-60
2022/01/21 14:00:50;;;;;;;22.38;20.98;;;1.60;63.70;;;;;;5045067;28;20059;-63
2022/01/21 14:03:28;;;;;;;22.60;21.50;;;1.50;63.70;;;;;;5040991;28;20507;-62
2022/01/21 14:05:58;;;;;;;21.60;20.55;;;1.50;63.60;;;;;;5040650;28;20028;-61
2022/01/21 14:08:30;;;;;;;25.90;24.40;;;1.50;63.60;;;;;;5043260;28;20072;-62
2022/01/21 14:10:58;;;;;;;22.73;21.42;;;1.50;64.40;;;;;;5042217;28;20078;-62
2022/01/21 14:13:30;;;;;;;25.25;23.67;;;1.50;63.90;;;;;;5040681;28;20028;-63
2022/01/21 14:16:03;;;;;;;19.65;18.40;;;1.50;63.90;;;;;;5042069;28;20029;-62
2022/01/21 14:18:32;;;;;;;22.42;20.98;;;1.50;63.90;;;;;;5042146;28;20383;-61
2022/01/21 14:21:13;;;;;;;25.70;23.90;;;1.40;63.90;;;;;;5042215;28;20026;-62
2022/01/21 14:23:40;;;;;;;22.65;21.00;;;1.40;63.80;;;;;;5042219;28;20050;-62
2022/01/21 14:26:07;;;;;;;23.15;21.52;;;1.40;63.80;;;;;;5039967;28;20029;-61
2022/01/21 14:28:54;;;;;;;20.02;18.77;;;1.40;63.80;;;;;;5037189;28;20549;-62
2022/01/21 14:31:26;;;;;;;20.65;18.38;;;1.30;63.90;;;;;;5040929;28;20536;-62
2022/01/21 14:33:51;;;;;;;19.83;18.75;;;1.30;63.90;;;;;;5041631;28;20525;-62
2022/01/21 14:36:17;;;;;;;21.00;18.92;;;1.30;63.90;;;;;;5038864;28;20025;-61
2022/01/21 14:39:09;;;;;;;22.02;20.60;;;1.30;63.80;;;;;;5034914;28;20021;-64
2022/01/21 14:41:51;;;;;;;22.98;21.65;;;1.20;63.90;;;;;;5040760;28;20049;-62
2022/01/21 14:44:31;;;;;;;22.88;21.52;;;1.20;64.00;;;;;;5041565;28;20021;-62
2022/01/21 14:47:15;;;;;;;19.63;18.60;;;1.20;63.90;;;;;;5041376;28;20409;-62
2022/01/21 14:49:45;;;;;;;20.92;19.55;;;1.20;64.00;;;;;;5041842;28;20040;-62
2022/01/21 14:55:07;;;;;;;19.75;18.17;;;1.10;64.70;;;;;;5043018;28;20029;-63
2022/01/21 14:57:34;;;;;;;23.35;22.10;;;1.20;64.30;;;;;;5033384;28;20582;-61
2022/01/21 15:00:03;;;;;;;21.52;20.30;;;1.20;64.40;;;;;;5032604;28;20562;-62
2022/01/21 15:02:32;;;;;;;19.90;18.70;;;1.20;64.30;;;;;;5032021;28;20046;-63
2022/01/21 15:05:01;;;;;;;19.63;18.13;;;1.20;64.30;;;;;;5032356;28;20467;-62
2022/01/21 15:07:29;;;;;;;19.60;18.60;;;1.20;64.30;;;;;;5042102;28;20048;-62
2022/01/21 15:10:01;;;;;;;22.42;20.83;;;1.20;64.40;;;;;;5039093;28;20041;-62
2022/01/21 15:15:34;;;;;;;20.10;19.00;;;1.10;64.40;;;;;;5041854;28;20040;-62
2022/01/21 15:18:01;;;;;;;19.67;18.33;;;1.10;64.40;;;;;;5040931;28;20036;-61
2022/01/21 15:20:36;;;;;;;21.23;20.08;;;1.00;64.30;;;;;;5039505;28;20188;-62
2022/01/21 15:23:04;;;;;;;19.85;18.40;;;0.90;64.40;;;;;;5041487;28;20033;-61
2022/01/21 15:25:31;;;;;;;21.88;20.48;;;0.90;64.60;;;;;;5043292;28;20025;-61
2022/01/21 15:27:57;;;;;;;22.13;20.40;;;0.90;64.70;;;;;;5051479;28;20051;-61
2022/01/21 15:30:24;;;;;;;24.35;22.80;;;0.90;64.80;;;;;;5051205;28;20471;-62
2022/01/21 15:32:51;;;;;;;21.20;19.60;;;0.90;64.80;;;;;;5052609;28;20060;-63
2022/01/21 15:35:17;;;;;;;20.98;19.42;;;0.90;64.90;;;;;;5052979;28;20055;-63
2022/01/21 15:37:43;;;;;;;21.10;19.88;;;0.90;65.00;;;;;;5052626;28;20025;-62
2022/01/21 15:40:09;;;;;;;19.55;18.20;;;0.90;65.10;;;;;;5052652;28;20025;-61
2022/01/21 15:42:36;;;;;;;26.35;24.30;;;0.90;65.20;;;;;;5052541;28;20029;-61
2022/01/21 15:45:02;;;;;;;24.00;22.80;;;0.90;65.20;;;;;;5052462;28;20029;-61
2022/01/21 15:47:28;;;;;;;21.02;19.80;;;0.90;65.20;;;;;;5052508;28;20433;-61
2022/01/21 15:49:55;;;;;;;19.45;18.55;;;0.80;65.20;;;;;;5056134;28;20452;-62
2022/01/21 15:52:22;;;;;;;24.38;22.67;;;0.90;65.40;;;;;;5055102;28;20128;-62
2022/01/21 15:54:48;;;;;;;19.40;17.77;;;0.90;65.30;;;;;;5056410;28;20545;-61
2022/01/21 15:57:14;;;;;;;21.15;19.83;;;0.90;65.40;;;;;;5055061;28;20040;-62
2022/01/21 15:59:40;;;;;;;22.15;20.88;;;0.90;65.60;;;;;;5055049;28;20025;-62
2022/01/21 16:02:06;;;;;;;18.63;17.70;;;0.90;65.60;;;;;;5054553;28;20052;-61
2022/01/21 16:04:36;;;;;;;18.40;17.33;;;1.00;65.60;;;;;;5054986;28;20032;-61
2022/01/21 16:07:03;;;;;;;18.75;17.75;;;1.00;65.60;;;;;;5056595;28;20111;-62
2022/01/21 16:09:29;;;;;;;19.33;18.08;;;1.00;65.60;;;;;;5056442;28;20025;-61
2022/01/21 16:11:54;;;;;;;18.75;17.75;;;1.00;65.60;;;;;;5056219;28;20035;-61
2022/01/21 16:14:20;;;;;;;21.35;20.25;;;1.10;65.80;;;;;;5056054;28;20021;-62
2022/01/21 16:16:47;;;;;;;24.80;23.60;;;1.00;65.80;;;;;;5054745;28;20521;-61
2022/01/21 16:19:14;;;;;;;23.23;22.23;;;1.00;65.80;;;;;;5055415;28;20044;-61
2022/01/21 16:21:43;;;;;;;20.23;19.13;;;1.00;65.90;;;;;;5056091;28;20061;-63
2022/01/21 16:24:09;;;;;;;22.10;20.05;;;0.90;65.90;;;;;;5055867;28;20059;-62
2022/01/21 16:26:36;;;;;;;21.60;20.35;;;0.90;65.90;;;;;;5054698;28;20029;-62
2022/01/21 16:29:02;;;;;;;19.67;18.55;;;0.90;65.90;;;;;;5054583;28;20071;-61
2022/01/21 16:31:30;;;;;;;21.63;20.52;;;0.80;66.00;;;;;;5049334;28;20028;-62
2022/01/21 16:33:56;;;;;;;19.83;18.65;;;0.80;66.10;;;;;;5045446;28;20028;-62
2022/01/21 16:36:21;;;;;;;20.35;19.08;;;0.80;66.20;;;;;;5042203;28;20686;-62
2022/01/21 16:38:48;;;;;;;19.95;18.52;;;0.70;66.30;;;;;;5042814;28;20025;-61
2022/01/21 16:41:16;;;;;;;21.52;20.38;;;0.70;66.30;;;;;;5042337;28;20487;-62
2022/01/21 16:43:42;;;;;;;20.92;19.40;;;0.70;66.40;;;;;;5042559;28;20021;-62
2022/01/21 16:46:08;;;;;;;20.50;19.10;;;0.70;66.50;;;;;;5044514;28;20107;-62
2022/01/21 16:48:34;;;;;;;20.83;19.67;;;0.70;66.50;;;;;;5041650;28;20045;-62
2022/01/21 16:51:00;;;;;;;20.48;19.55;;;0.70;66.70;;;;;;5040323;28;20498;-62
2022/01/21 16:53:27;;;;;;;20.95;19.60;;;0.70;66.70;;;;;;5043410;28;20112;-62
2022/01/21 16:55:52;;;;;;;23.10;21.83;;;0.70;66.70;;;;;;5042810;28;20022;-62
2022/01/21 16:58:18;;;;;;;22.15;20.58;;;0.70;66.90;;;;;;5041768;28;20030;-63
2022/01/21 17:00:44;;;;;;;20.33;19.02;;;0.70;66.90;;;;;;5041563;28;20018;-62
2022/01/21 17:03:10;;;;;;;24.02;22.45;;;0.70;67.00;;;;;;5052696;28;20098;-62
2022/01/21 17:05:36;;;;;;;21.63;20.52;;;0.70;67.10;;;;;;5053747;28;20104;-62
2022/01/21 17:08:03;;;;;;;22.67;21.30;;;0.80;67.20;;;;;;5053835;28;20486;-62
2022/01/21 17:10:29;;;;;;;23.27;21.73;;;0.70;67.20;;;;;;5046157;28;20099;-64
2022/01/21 17:12:55;;;;;;;22.08;20.23;;;0.80;67.30;;;;;;5033771;28;20088;-63
2022/01/21 17:15:22;;;;;;;22.65;21.23;;;0.80;67.40;;;;;;5033976;28;20059;-63
2022/01/21 17:17:48;;;;;;;21.98;20.48;;;0.80;67.50;;;;;;5033595;28;20069;-63
2022/01/21 17:20:16;;;;;;;24.33;22.02;;;0.80;67.60;;;;;;5035135;28;20029;-62
2022/01/21 17:22:43;;;;;;;22.75;21.48;;;0.80;67.60;;;;;;5035121;28;20120;-63
2022/01/21 17:25:09;;;;;;;22.83;21.00;;;0.80;67.70;;;;;;5033877;28;20387;-62
2022/01/21 17:27:35;;;;;;;22.25;20.88;;;0.80;67.70;;;;;;5034942;28;20033;-64
2022/01/21 17:30:01;;;;;;;21.23;20.00;;;0.80;67.70;;;;;;5033815;28;20052;-62
2022/01/21 17:32:27;;;;;;;24.05;22.05;;;0.90;67.80;;;;;;5035109;28;20048;-63
2022/01/21 17:34:56;;;;;;;26.02;24.02;;;0.90;67.80;;;;;;5034764;28;20108;-63
2022/01/21 17:37:23;;;;;;;24.20;22.25;;;0.90;67.90;;;;;;5034992;28;20017;-63
2022/01/21 17:39:49;;;;;;;23.45;21.65;;;0.80;67.90;;;;;;5035813;28;20032;-62
2022/01/21 17:42:15;;;;;;;22.85;21.50;;;0.80;67.90;;;;;;5042025;28;20041;-63
2022/01/21 17:44:41;;;;;;;23.98;22.48;;;0.80;67.90;;;;;;5043238;28;20028;-63
2022/01/21 17:47:07;;;;;;;20.55;19.35;;;0.80;68.00;;;;;;5043772;28;20040;-62
2022/01/21 17:49:34;;;;;;;20.92;19.60;;;0.90;68.10;;;;;;5041570;28;20158;-64
2022/01/21 17:51:59;;;;;;;23.38;21.63;;;0.90;68.10;;;;;;5044095;28;20036;-63
2022/01/21 17:54:25;;;;;;;24.08;22.27;;;0.80;68.70;;;;;;5040806;28;20032;-64
2022/01/21 17:56:51;;;;;;;23.58;21.70;;;0.90;68.10;;;;;;5042187;28;20025;-63
2022/01/21 17:59:17;;;;;;;21.83;20.48;;;0.90;68.10;;;;;;5041525;28;20040;-63
2022/01/21 18:01:43;;;;;;;24.33;22.65;;;0.90;68.10;;;;;;5041809;28;20050;-62
2022/01/21 18:04:09;;;;;;;25.50;23.67;;;0.90;68.20;;;;;;5043061;28;20021;-62
2022/01/21 18:06:35;;;;;;;26.05;23.60;;;0.90;68.20;;;;;;5043619;28;20017;-64
2022/01/21 18:09:12;;;;;;;23.85;22.55;;;0.90;68.20;;;;;;5034291;28;20036;-64
2022/01/21 18:11:38;;;;;;;;;;;0.90;68.20;;;;;;5033267;28;20033;-64
2022/01/21 18:14:04;;;;;;;24.60;22.40;;;0.90;68.20;;;;;;5034393;28;20343;-63
2022/01/21 18:16:31;;;;;;;22.23;20.65;;;0.90;67.90;;;;;;5034244;28;20071;-63
2022/01/21 18:18:58;;;;;;;25.20;23.60;;;0.90;68.10;;;;;;5034499;28;20463;-63
2022/01/21 18:21:25;;;;;;;25.65;23.73;;;0.90;68.20;;;;;;5034112;28;20057;-60
2022/01/21 18:23:52;;;;;;;23.25;21.38;;;0.90;68.20;;;;;;5033534;28;20376;-59
2022/01/21 18:26:18;;;;;;;24.40;22.48;;;0.90;68.30;;;;;;5032481;28;20036;-60
2022/01/21 18:28:44;;;;;;;26.80;25.00;;;0.90;68.30;;;;;;5046049;28;20459;-60
2022/01/21 18:31:10;;;;;;;26.85;24.27;;;1.00;68.30;;;;;;5040984;28;20025;-62
2022/01/21 18:33:36;;;;;;;25.20;23.23;;;1.00;68.40;;;;;;5042824;28;20036;-63
2022/01/21 18:36:04;;;;;;;21.15;19.85;;;1.00;68.30;;;;;;5049705;28;20069;-61
2022/01/21 18:38:31;;;;;;;23.52;21.77;;;1.00;68.30;;;;;;5042728;28;20025;-61
2022/01/21 18:40:57;;;;;;;24.20;22.88;;;1.00;68.20;;;;;;5038873;28;20064;-60
2022/01/21 18:43:27;;;;;;;26.92;25.25;;;1.00;68.30;;;;;;5038741;28;20032;-61
2022/01/21 18:45:56;;;;;;;23.70;21.83;;;1.10;68.30;;;;;;5038064;28;20120;-61
2022/01/21 18:48:22;;;;;;;20.30;18.60;;;1.00;68.20;;;;;;5038588;28;20024;-60
2022/01/21 18:50:49;;;;;;;21.95;20.60;;;1.00;68.30;;;;;;5040871;28;20021;-61
2022/01/21 18:53:15;;;;;;;25.67;23.73;;;1.10;68.40;;;;;;5042251;28;20028;-60
2022/01/21 18:55:41;;;;;;;24.13;22.55;;;1.10;68.40;;;;;;5048076;28;20024;-61
2022/01/21 18:58:07;;;;;;;22.25;20.65;;;1.10;68.40;;;;;;5051249;28;20430;-59
2022/01/21 19:00:33;;;;;;;23.80;22.45;;;1.10;68.40;;;;;;5052824;28;20025;-60
2022/01/21 19:03:00;;;;;;;29.63;26.80;;;1.10;68.40;;;;;;5052660;28;20060;-59